Time;durP1;ratioP1;P1;durP2;ratioP2;P2;SDS_P1;SDS_P2;PMS_P1;PMS_P2;Temp;Humidity;BMP_temperature;BMP_pressure;BME280_temperature;BME280_humidity;BME280_pressure;Samples;Min_cycle;Max_cycle;Signal;HPM_P1;HPM_P2
2021/03/29 00:00:13;;;;;;;6.28;3.83;;;8.80;99.90;;;;;;5077656;28;20168;-69
2021/03/29 00:02:40;;;;;;;7.70;3.42;;;8.70;99.90;;;;;;5077548;28;20192;-69
2021/03/29 00:05:08;;;;;;;4.85;3.35;;;8.60;99.90;;;;;;5077071;28;20203;-68
2021/03/29 00:07:35;;;;;;;4.57;2.80;;;8.70;99.90;;;;;;5077261;28;20202;-69
2021/03/29 00:10:07;;;;;;;5.50;3.13;;;8.50;99.90;;;;;;5076968;28;20669;-69
2021/03/29 00:12:38;;;;;;;7.40;2.90;;;8.40;99.90;;;;;;5077072;28;20295;-69
2021/03/29 00:15:07;;;;;;;5.97;3.08;;;8.30;99.90;;;;;;5076691;28;20214;-69
2021/03/29 00:17:35;;;;;;;6.07;3.20;;;8.30;99.90;;;;;;5076824;28;20220;-69
2021/03/29 00:20:07;;;;;;;4.90;3.53;;;8.30;99.90;;;;;;5077084;28;20200;-70
2021/03/29 00:22:34;;;;;;;3.50;2.42;;;8.30;99.90;;;;;;5077209;28;20180;-69
2021/03/29 00:25:00;;;;;;;4.18;3.08;;;8.20;99.90;;;;;;5077458;28;20196;-69
2021/03/29 00:27:29;;;;;;;7.07;3.25;;;8.10;99.90;;;;;;5077253;28;20194;-67
2021/03/29 00:29:56;;;;;;;7.30;3.15;;;8.10;99.90;;;;;;5076252;28;20573;-69
2021/03/29 00:32:22;;;;;;;6.47;2.92;;;8.10;99.90;;;;;;5077244;28;20191;-68
2021/03/29 00:34:54;;;;;;;7.70;2.85;;;8.00;99.90;;;;;;5076254;28;20173;-69
2021/03/29 00:37:24;;;;;;;10.43;3.70;;;7.90;99.90;;;;;;5076765;28;20196;-69
2021/03/29 00:39:52;;;;;;;6.68;3.25;;;7.90;99.90;;;;;;5076939;28;20648;-69
2021/03/29 00:42:19;;;;;;;11.52;3.40;;;7.90;99.90;;;;;;5076617;28;20196;-69
2021/03/29 00:44:54;;;;;;;5.70;3.33;;;7.90;99.90;;;;;;5077126;28;20173;-70
2021/03/29 00:47:23;;;;;;;3.97;3.40;;;7.80;99.90;;;;;;5059226;28;20242;-70
2021/03/29 00:49:52;;;;;;;6.15;3.40;;;7.70;99.90;;;;;;5076393;28;20196;-70
2021/03/29 00:52:20;;;;;;;6.20;3.20;;;7.60;99.90;;;;;;5076528;28;20199;-70
2021/03/29 00:54:47;;;;;;;4.93;3.00;;;7.60;99.90;;;;;;5076278;28;20204;-69
2021/03/29 00:57:18;;;;;;;6.60;3.90;;;7.60;99.90;;;;;;5076444;28;20201;-69
2021/03/29 00:59:48;;;;;;;6.60;3.75;;;7.80;99.90;;;;;;5076342;28;20200;-69
2021/03/29 01:02:18;;;;;;;6.78;3.92;;;8.00;99.90;;;;;;5075777;28;20612;-69
2021/03/29 01:04:44;;;;;;;6.05;3.42;;;8.10;99.90;;;;;;5076371;28;20204;-68
2021/03/29 01:07:14;;;;;;;8.45;4.43;;;8.20;99.90;;;;;;5076155;28;20199;-67
2021/03/29 01:09:41;;;;;;;9.48;3.80;;;8.10;99.90;;;;;;5076253;28;20494;-68
2021/03/29 01:12:10;;;;;;;9.25;4.13;;;8.10;99.90;;;;;;5075914;28;20215;-69
2021/03/29 01:14:46;;;;;;;7.80;3.17;;;8.20;99.90;;;;;;5075762;28;20192;-69
2021/03/29 01:17:23;;;;;;;6.13;3.40;;;8.10;99.90;;;;;;5076138;28;20690;-69
2021/03/29 01:20:03;;;;;;;6.43;4.10;;;8.00;99.90;;;;;;5075669;28;20215;-69
2021/03/29 01:22:48;;;;;;;8.02;4.43;;;8.00;99.90;;;;;;5075924;28;20179;-69
2021/03/29 01:25:51;;;;;;;5.97;4.20;;;8.00;99.90;;;;;;5075467;28;20616;-69
2021/03/29 01:28:22;;;;;;;10.32;3.75;;;8.00;99.90;;;;;;5073758;28;20207;-69
2021/03/29 01:30:50;;;;;;;10.68;4.72;;;7.90;99.90;;;;;;5075668;28;20227;-69
2021/03/29 01:33:18;;;;;;;6.20;4.22;;;7.80;99.90;;;;;;5075438;28;20196;-69
2021/03/29 01:35:53;;;;;;;5.30;3.90;;;7.80;99.90;;;;;;5075297;28;20226;-69
2021/03/29 01:38:20;;;;;;;4.55;3.92;;;7.90;99.90;;;;;;5075113;28;20227;-69
2021/03/29 01:40:48;;;;;;;9.93;3.85;;;7.90;99.90;;;;;;5074994;28;20192;-69
2021/03/29 01:43:15;;;;;;;5.80;3.50;;;7.90;99.90;;;;;;5074069;28;20564;-69
2021/03/29 01:45:43;;;;;;;6.93;3.75;;;7.90;99.90;;;;;;5075178;28;20227;-69
2021/03/29 01:48:13;;;;;;;8.70;4.18;;;7.90;99.90;;;;;;5075564;28;20191;-69
2021/03/29 01:50:42;;;;;;;11.60;4.50;;;7.90;99.90;;;;;;5074910;28;20238;-69
2021/03/29 01:53:10;;;;;;;5.75;4.65;;;7.90;99.90;;;;;;5075535;28;20198;-69
2021/03/29 01:55:39;;;;;;;13.57;6.10;;;7.90;99.90;;;;;;5074856;28;20226;-69
2021/03/29 01:58:07;;;;;;;10.55;5.85;;;7.90;99.90;;;;;;5074985;28;20227;-69
2021/03/29 02:00:48;;;;;;;11.63;5.78;;;7.80;99.90;;;;;;5075079;28;20190;-69
2021/03/29 02:03:15;;;;;;;13.30;8.18;;;7.80;99.90;;;;;;5075322;28;20211;-69
2021/03/29 02:05:42;;;;;;;9.25;5.30;;;7.80;99.90;;;;;;5075225;28;20200;-70
2021/03/29 02:08:10;;;;;;;7.35;5.03;;;7.70;99.90;;;;;;5074141;28;20229;-69
2021/03/29 02:10:40;;;;;;;4.50;3.85;;;7.70;99.90;;;;;;5075687;28;20206;-69
2021/03/29 02:13:11;;;;;;;13.25;6.15;;;7.60;99.90;;;;;;5074786;28;20191;-69
2021/03/29 02:15:39;;;;;;;8.77;5.30;;;7.60;99.90;;;;;;5074625;28;20188;-69
2021/03/29 02:18:10;;;;;;;10.93;4.63;;;7.60;99.90;;;;;;5074485;28;20211;-69
2021/03/29 02:20:38;;;;;;;6.20;4.63;;;7.60;99.90;;;;;;5074823;28;20183;-69
2021/03/29 02:23:08;;;;;;;7.50;4.47;;;7.60;99.90;;;;;;5074330;28;20196;-69
2021/03/29 02:25:36;;;;;;;7.88;4.57;;;7.60;99.90;;;;;;5074306;28;20632;-69
2021/03/29 02:28:05;;;;;;;8.75;4.57;;;7.60;99.90;;;;;;5074433;28;20196;-69
2021/03/29 02:30:36;;;;;;;8.27;3.85;;;7.50;99.90;;;;;;5074101;28;20212;-69
2021/03/29 02:33:05;;;;;;;6.07;3.65;;;7.50;99.90;;;;;;5074180;28;20188;-69
2021/03/29 02:35:34;;;;;;;8.85;4.68;;;7.50;99.90;;;;;;5074741;28;20184;-69
2021/03/29 02:38:02;;;;;;;5.78;4.05;;;7.40;99.90;;;;;;5073842;28;20215;-69
2021/03/29 02:40:31;;;;;;;7.85;3.50;;;7.30;99.90;;;;;;5074487;28;20226;-69
2021/03/29 02:43:01;;;;;;;14.35;5.35;;;7.30;99.90;;;;;;5074375;28;20196;-69
2021/03/29 02:45:36;;;;;;;8.60;4.18;;;7.20;99.90;;;;;;5073874;28;20624;-69
2021/03/29 02:48:10;;;;;;;13.32;5.80;;;7.20;99.90;;;;;;5073874;28;20286;-69
2021/03/29 02:50:39;;;;;;;6.20;4.25;;;7.20;99.90;;;;;;5073761;28;20228;-69
2021/03/29 02:53:09;;;;;;;10.00;4.45;;;7.20;99.90;;;;;;5073942;28;20200;-69
2021/03/29 02:55:36;;;;;;;9.68;5.15;;;7.20;99.90;;;;;;5074623;28;20262;-69
2021/03/29 02:58:04;;;;;;;13.38;6.50;;;7.20;99.90;;;;;;5073904;28;20289;-69
2021/03/29 03:00:33;;;;;;;8.82;5.32;;;7.10;99.90;;;;;;5073495;28;20187;-69
2021/03/29 03:03:02;;;;;;;6.72;4.75;;;7.10;99.90;;;;;;5073235;28;20200;-69
2021/03/29 03:05:35;;;;;;;6.82;3.80;;;7.00;99.90;;;;;;5073369;28;20188;-70
2021/03/29 03:08:02;;;;;;;9.18;4.53;;;6.90;99.90;;;;;;5073887;28;20636;-69
2021/03/29 03:10:33;;;;;;;5.63;3.90;;;6.90;99.90;;;;;;5073478;28;20212;-69
2021/03/29 03:13:09;;;;;;;9.27;3.88;;;6.80;99.90;;;;;;5073972;28;20192;-69
2021/03/29 03:15:37;;;;;;;7.65;4.50;;;6.60;99.90;;;;;;5073502;28;20594;-69
2021/03/29 03:18:10;;;;;;;5.30;3.33;;;6.60;99.90;;;;;;5074026;28;20227;-69
2021/03/29 03:20:38;;;;;;;4.90;3.97;;;6.60;99.90;;;;;;5073717;28;20210;-69
2021/03/29 03:23:17;;;;;;;7.80;4.07;;;6.40;99.90;;;;;;5074048;28;20631;-69
2021/03/29 03:25:46;;;;;;;11.60;4.35;;;6.30;99.90;;;;;;5077798;28;20176;-69
2021/03/29 03:28:15;;;;;;;10.95;4.40;;;6.30;99.90;;;;;;5077962;28;20192;-69
2021/03/29 03:30:45;;;;;;;9.85;3.50;;;6.20;99.90;;;;;;5077987;28;20230;-69
2021/03/29 03:33:13;;;;;;;7.80;3.97;;;6.20;99.90;;;;;;5077689;28;20187;-69
2021/03/29 03:35:41;;;;;;;6.80;3.30;;;6.10;99.90;;;;;;5077872;28;20211;-69
2021/03/29 03:38:14;;;;;;;4.25;3.83;;;6.00;99.90;;;;;;5077757;28;20541;-69
2021/03/29 03:40:45;;;;;;;5.05;3.38;;;6.00;99.90;;;;;;5077720;28;20291;-69
2021/03/29 03:43:16;;;;;;;5.20;3.38;;;5.90;99.90;;;;;;5077910;28;20253;-69
2021/03/29 03:45:49;;;;;;;7.20;4.50;;;5.90;99.90;;;;;;5077358;28;20551;-69
2021/03/29 03:48:17;;;;;;;9.75;4.30;;;5.90;99.90;;;;;;5077956;28;20290;-69
2021/03/29 03:50:49;;;;;;;5.00;3.90;;;6.00;99.90;;;;;;5076319;28;20230;-69
2021/03/29 03:53:19;;;;;;;9.57;4.47;;;6.00;99.90;;;;;;5077965;28;20643;-69
2021/03/29 03:55:53;;;;;;;14.95;4.85;;;6.00;99.90;;;;;;5077886;28;20692;-69
2021/03/29 03:58:19;;;;;;;12.43;4.20;;;6.00;99.90;;;;;;5077995;28;20207;-69
2021/03/29 04:00:50;;;;;;;13.55;5.72;;;6.00;99.90;;;;;;5077787;28;20175;-69
2021/03/29 04:03:17;;;;;;;5.43;3.35;;;6.10;99.90;;;;;;5077793;28;20208;-69
2021/03/29 04:05:45;;;;;;;4.65;3.35;;;6.10;99.90;;;;;;5077658;28;20205;-69
2021/03/29 04:08:12;;;;;;;3.80;3.30;;;6.10;99.90;;;;;;5076979;28;20659;-69
2021/03/29 04:13:24;;;;;;;8.40;4.63;;;6.20;99.90;;;;;;5077048;28;20188;-69
2021/03/29 04:15:53;;;;;;;6.13;4.00;;;6.10;99.90;;;;;;5077315;28;20204;-69
2021/03/29 04:18:20;;;;;;;7.95;3.97;;;6.10;99.90;;;;;;5077036;28;20281;-69
2021/03/29 04:20:51;;;;;;;8.85;3.65;;;6.00;99.90;;;;;;5075857;28;20169;-69
2021/03/29 04:23:19;;;;;;;9.05;5.07;;;6.00;99.90;;;;;;5077139;28;20195;-69
2021/03/29 04:25:45;;;;;;;8.88;3.72;;;6.00;99.90;;;;;;5077410;28;20192;-69
2021/03/29 04:28:14;;;;;;;12.27;4.43;;;6.00;99.90;;;;;;5077833;28;20200;-69
2021/03/29 04:30:42;;;;;;;9.25;4.32;;;5.90;99.90;;;;;;5077357;28;20224;-69
2021/03/29 04:33:08;;;;;;;9.23;3.60;;;5.80;99.90;;;;;;5077225;28;20192;-69
2021/03/29 04:35:35;;;;;;;9.05;4.22;;;5.90;99.90;;;;;;5076656;28;20208;-69
2021/03/29 04:38:02;;;;;;;6.78;4.82;;;5.80;99.90;;;;;;5076993;28;20710;-69
2021/03/29 04:40:29;;;;;;;16.00;6.13;;;5.70;99.90;;;;;;5077259;28;20295;-69
2021/03/29 04:42:56;;;;;;;11.38;7.78;;;5.70;99.90;;;;;;5077317;28;20204;-69
2021/03/29 04:45:27;;;;;;;10.50;6.47;;;5.60;99.90;;;;;;5076674;28;20168;-69
2021/03/29 04:47:53;;;;;;;23.55;6.85;;;5.60;99.90;;;;;;5076575;28;20196;-69
2021/03/29 04:50:21;;;;;;;16.13;5.80;;;5.50;99.90;;;;;;5076026;28;20270;-69
2021/03/29 04:52:48;;;;;;;7.57;4.25;;;5.40;99.90;;;;;;5076303;28;20211;-69
2021/03/29 04:55:20;;;;;;;8.68;4.30;;;5.30;99.90;;;;;;5076721;28;20192;-69
2021/03/29 04:57:48;;;;;;;9.05;4.10;;;5.30;99.90;;;;;;5076581;28;20200;-69
2021/03/29 05:00:16;;;;;;;9.80;3.75;;;5.20;99.90;;;;;;5076054;28;20312;-69
2021/03/29 05:02:44;;;;;;;4.75;3.45;;;5.10;99.90;;;;;;5076415;28;20663;-69
2021/03/29 05:05:11;;;;;;;11.07;4.63;;;5.00;99.90;;;;;;5077627;28;20188;-69
2021/03/29 05:07:38;;;;;;;11.50;3.88;;;4.90;99.90;;;;;;5077421;28;20215;-69
2021/03/29 05:10:09;;;;;;;4.45;4.05;;;4.80;99.90;;;;;;5076374;28;20204;-69
2021/03/29 05:12:36;;;;;;;9.02;4.97;;;4.90;99.90;;;;;;5076305;28;20222;-69
2021/03/29 05:15:03;;;;;;;5.38;3.35;;;4.90;99.90;;;;;;5075682;28;20712;-69
2021/03/29 05:17:30;;;;;;;5.03;3.42;;;4.90;99.90;;;;;;5074493;28;20550;-69
2021/03/29 05:19:56;;;;;;;7.53;3.90;;;5.00;99.90;;;;;;5075550;28;20216;-69
2021/03/29 05:22:22;;;;;;;7.22;4.05;;;5.10;99.90;;;;;;5075858;28;20203;-69
2021/03/29 05:24:49;;;;;;;6.22;3.70;;;5.10;99.90;;;;;;5075706;28;20204;-69
2021/03/29 05:27:15;;;;;;;10.52;5.70;;;5.20;99.90;;;;;;5074156;28;20204;-69
2021/03/29 05:29:42;;;;;;;9.27;4.32;;;5.20;99.90;;;;;;5075342;28;20768;-69
2021/03/29 05:32:17;;;;;;;6.95;4.20;;;5.10;99.90;;;;;;5074641;28;20213;-69
2021/03/29 05:34:46;;;;;;;9.73;4.20;;;5.20;99.90;;;;;;5076019;28;20199;-69
2021/03/29 05:37:14;;;;;;;8.23;3.70;;;5.10;99.90;;;;;;5074857;28;20210;-69
2021/03/29 05:39:44;;;;;;;9.18;3.92;;;5.20;99.90;;;;;;5075766;28;20671;-70
2021/03/29 05:42:11;;;;;;;8.02;3.80;;;5.30;99.90;;;;;;5075891;28;20192;-70
2021/03/29 05:44:44;;;;;;;9.57;4.47;;;5.30;99.90;;;;;;5075756;28;20268;-69
2021/03/29 05:47:11;;;;;;;10.55;5.30;;;5.30;99.90;;;;;;5075605;28;20223;-69
2021/03/29 05:49:38;;;;;;;5.28;4.78;;;5.30;99.90;;;;;;5076089;28;20599;-69
2021/03/29 05:52:04;;;;;;;16.00;5.45;;;5.30;99.90;;;;;;5075818;28;20235;-69
2021/03/29 05:54:32;;;;;;;8.82;4.47;;;5.30;99.90;;;;;;5057703;28;20291;-69
2021/03/29 05:56:58;;;;;;;9.52;5.15;;;5.40;99.90;;;;;;5074073;28;20207;-69
2021/03/29 05:59:27;;;;;;;11.23;4.45;;;5.40;99.90;;;;;;5073953;28;20228;-69
2021/03/29 06:01:55;;;;;;;11.25;5.03;;;5.50;99.90;;;;;;5075582;28;20210;-70
2021/03/29 06:04:45;;;;;;;5.22;4.47;;;5.60;99.90;;;;;;5076174;28;20196;-70
2021/03/29 06:07:16;;;;;;;14.75;6.53;;;5.60;99.90;;;;;;5075783;28;20211;-69
2021/03/29 06:09:47;;;;;;;6.05;4.45;;;5.70;99.90;;;;;;5075473;28;20211;-70
2021/03/29 06:12:16;;;;;;;17.27;5.82;;;5.70;99.90;;;;;;5074493;28;20199;-69
2021/03/29 06:14:45;;;;;;;11.55;5.85;;;5.80;99.90;;;;;;5073738;28;20647;-69
2021/03/29 06:17:21;;;;;;;13.98;6.90;;;6.00;99.90;;;;;;5074999;28;20271;-69
2021/03/29 06:19:58;;;;;;;7.45;6.13;;;6.10;99.90;;;;;;5075067;28;20196;-70
2021/03/29 06:22:31;;;;;;;10.63;6.05;;;6.20;99.90;;;;;;5075118;28;20208;-70
2021/03/29 06:25:21;;;;;;;8.45;5.65;;;6.30;99.90;;;;;;5074762;28;20180;-70
2021/03/29 06:27:59;;;;;;;6.90;6.13;;;6.30;99.90;;;;;;5074449;28;20187;-69
2021/03/29 06:30:37;;;;;;;8.20;5.53;;;6.40;99.90;;;;;;5074263;28;20220;-69
2021/03/29 06:33:13;;;;;;;10.85;5.78;;;6.50;99.90;;;;;;5074337;28;20180;-69
2021/03/29 06:35:42;;;;;;;8.23;4.95;;;6.60;99.90;;;;;;5073228;28;20227;-69
2021/03/29 06:38:16;;;;;;;10.02;5.68;;;6.80;99.90;;;;;;5074669;28;20544;-67
2021/03/29 06:40:54;;;;;;;11.65;4.57;;;7.00;99.90;;;;;;5074534;28;20179;-67
2021/03/29 06:43:24;;;;;;;8.00;5.70;;;7.20;99.90;;;;;;5074902;28;20196;-68
2021/03/29 06:45:54;;;;;;;8.15;5.63;;;7.30;99.90;;;;;;5074744;28;20195;-67
2021/03/29 06:48:24;;;;;;;9.07;5.10;;;7.50;99.90;;;;;;5073316;28;20261;-68
2021/03/29 06:51:10;;;;;;;7.72;5.70;;;7.50;99.90;;;;;;5074355;28;20273;-68
2021/03/29 06:54:04;;;;;;;13.07;6.80;;;7.70;99.90;;;;;;5074124;28;20586;-68
2021/03/29 06:56:42;;;;;;;12.82;4.38;;;7.80;99.90;;;;;;5073971;28;20208;-68
2021/03/29 06:59:20;;;;;;;10.20;4.95;;;7.70;99.90;;;;;;5073774;28;20234;-68
2021/03/29 07:01:52;;;;;;;8.93;5.25;;;7.90;99.90;;;;;;5074142;28;20655;-68
2021/03/29 07:04:25;;;;;;;12.40;5.40;;;8.00;99.90;;;;;;5072989;28;20742;-69
2021/03/29 07:06:52;;;;;;;12.05;5.05;;;8.20;99.90;;;;;;5074095;28;20203;-68
2021/03/29 07:09:22;;;;;;;8.15;5.55;;;8.40;99.90;;;;;;5074159;28;20182;-69
2021/03/29 07:11:50;;;;;;;9.40;4.85;;;8.30;99.90;;;;;;5074348;28;20278;-69
2021/03/29 07:14:20;;;;;;;6.85;4.43;;;8.50;99.90;;;;;;5074831;28;20192;-68
2021/03/29 07:16:48;;;;;;;5.53;4.70;;;8.70;99.90;;;;;;5074313;28;20202;-68
2021/03/29 07:19:16;;;;;;;10.73;4.75;;;8.80;99.90;;;;;;5074541;28;20224;-70
2021/03/29 07:21:43;;;;;;;6.60;4.50;;;9.00;99.90;;;;;;5074543;28;20215;-69
2021/03/29 07:24:14;;;;;;;6.68;4.63;;;9.20;99.90;;;;;;5074401;28;20196;-69
2021/03/29 07:26:53;;;;;;;8.65;4.03;;;9.30;99.90;;;;;;5074628;28;20168;-68
2021/03/29 07:29:28;;;;;;;9.27;3.65;;;9.40;99.90;;;;;;5074148;28;20248;-69
2021/03/29 07:32:03;;;;;;;7.20;4.20;;;9.50;99.90;;;;;;5074382;28;20219;-69
2021/03/29 07:34:51;;;;;;;4.78;3.72;;;9.70;99.90;;;;;;5074234;28;20185;-69
2021/03/29 07:37:36;;;;;;;7.25;5.10;;;10.00;99.90;;;;;;5074764;28;20184;-69
2021/03/29 07:40:18;;;;;;;9.18;4.85;;;10.20;99.90;;;;;;5074572;28;20315;-69
2021/03/29 07:42:54;;;;;;;7.28;3.63;;;10.40;99.90;;;;;;5072838;28;20206;-69
2021/03/29 07:45:26;;;;;;;7.25;3.85;;;10.50;99.90;;;;;;5074878;28;20196;-69
2021/03/29 07:47:57;;;;;;;14.20;4.18;;;10.60;99.90;;;;;;5074805;28;20208;-69
2021/03/29 07:50:29;;;;;;;6.63;4.00;;;10.80;99.90;;;;;;5074240;28;20311;-69
2021/03/29 07:52:58;;;;;;;7.55;3.55;;;10.90;99.90;;;;;;5072803;28;20681;-68
2021/03/29 07:55:28;;;;;;;7.47;3.50;;;11.10;99.90;;;;;;5074131;28;20285;-68
2021/03/29 07:57:59;;;;;;;6.10;3.75;;;11.20;99.90;;;;;;5073169;28;20321;-69
2021/03/29 08:00:26;;;;;;;4.85;3.70;;;11.40;99.90;;;;;;5076716;28;20220;-68
2021/03/29 08:02:55;;;;;;;7.20;3.60;;;11.60;99.90;;;;;;5075142;28;20211;-68
2021/03/29 08:05:39;;;;;;;5.55;3.45;;;11.70;99.90;;;;;;5076080;28;20192;-68
2021/03/29 08:08:24;;;;;;;6.15;3.28;;;11.70;99.90;;;;;;5075610;28;20674;-68
2021/03/29 08:11:05;;;;;;;4.30;2.67;;;11.90;99.90;;;;;;5075837;28;20214;-68
2021/03/29 08:13:38;;;;;;;5.07;3.88;;;12.10;99.90;;;;;;5077319;28;20208;-68
2021/03/29 08:16:13;;;;;;;5.30;3.40;;;12.20;99.90;;;;;;5080710;28;20188;-68
2021/03/29 08:19:11;;;;;;;5.53;3.92;;;12.40;99.90;;;;;;5080201;28;20625;-68
2021/03/29 08:22:14;;;;;;;5.75;3.35;;;12.50;99.90;;;;;;5077450;28;20253;-68
2021/03/29 08:24:46;;;;;;;8.35;3.00;;;12.60;99.90;;;;;;5078327;28;20254;-68
2021/03/29 08:27:17;;;;;;;6.07;3.35;;;12.70;99.90;;;;;;5077825;28;20291;-68
2021/03/29 08:29:45;;;;;;;3.60;2.75;;;12.90;99.90;;;;;;5076978;28;20540;-66
2021/03/29 08:32:25;;;;;;;4.38;2.90;;;12.90;99.90;;;;;;5076520;28;20192;-67
2021/03/29 08:35:05;;;;;;;5.68;3.25;;;13.10;99.90;;;;;;5076511;28;20176;-68
2021/03/29 08:37:46;;;;;;;3.90;2.90;;;13.30;99.90;;;;;;5076417;28;20627;-68
2021/03/29 08:40:16;;;;;;;3.40;2.67;;;13.30;99.90;;;;;;5076757;28;20228;-67
2021/03/29 08:42:44;;;;;;;11.45;3.20;;;13.50;99.90;;;;;;5076745;28;20184;-67
2021/03/29 08:45:16;;;;;;;3.60;2.47;;;13.60;99.90;;;;;;5075358;28;20199;-68
2021/03/29 08:47:46;;;;;;;4.67;2.73;;;13.80;99.90;;;;;;5074851;28;20655;-68
2021/03/29 08:50:16;;;;;;;4.43;2.87;;;13.80;99.90;;;;;;5075834;28;20632;-68
2021/03/29 08:52:57;;;;;;;9.57;2.63;;;13.70;99.90;;;;;;5076078;28;20932;-68
2021/03/29 08:55:33;;;;;;;3.80;2.77;;;14.00;99.90;;;;;;5076155;28;21093;-67
2021/03/29 08:58:00;;;;;;;5.50;3.00;;;13.90;99.90;;;;;;5071820;28;21189;-67
2021/03/29 09:00:30;;;;;;;4.50;3.00;;;14.00;99.90;;;;;;5058727;28;20219;-68
2021/03/29 09:02:58;;;;;;;3.97;2.90;;;13.90;99.90;;;;;;5075328;28;20721;-68
2021/03/29 09:05:25;;;;;;;3.90;2.70;;;14.00;99.90;;;;;;5072445;28;20620;-68
2021/03/29 09:07:56;;;;;;;4.90;2.80;;;14.20;99.90;;;;;;5055481;28;21125;-67
2021/03/29 09:10:33;;;;;;;4.00;2.90;;;14.20;99.90;;;;;;5055845;28;20204;-68
2021/03/29 09:13:09;;;;;;;3.17;2.30;;;14.40;99.90;;;;;;5055778;28;20608;-67
2021/03/29 09:15:37;;;;;;;4.20;2.83;;;14.40;99.90;;;;;;5056277;28;20622;-67
2021/03/29 09:18:07;;;;;;;2.83;2.33;;;14.50;99.90;;;;;;5055953;28;20619;-68
2021/03/29 09:20:38;;;;;;;7.13;2.87;;;14.80;99.90;;;;;;5055525;28;20642;-68
2021/03/29 09:23:06;;;;;;;6.67;3.00;;;15.00;99.90;;;;;;5055804;28;20706;-68
2021/03/29 09:25:37;;;;;;;5.47;2.53;;;14.80;99.90;;;;;;5055314;28;20708;-67
2021/03/29 09:28:22;;;;;;;3.60;2.60;;;15.00;99.90;;;;;;5055686;28;20674;-68
2021/03/29 09:31:15;;;;;;;6.70;3.50;;;15.00;99.90;;;;;;5055734;28;20749;-67
2021/03/29 09:33:43;;;;;;;6.43;2.50;;;15.00;99.90;;;;;;5055866;28;20626;-68
2021/03/29 09:36:12;;;;;;;9.87;2.70;;;15.30;99.90;;;;;;5055119;28;21039;-67
2021/03/29 09:38:43;;;;;;;4.07;2.90;;;15.10;99.90;;;;;;5055217;28;20623;-67
2021/03/29 09:41:20;;;;;;;3.03;2.17;;;15.40;99.90;;;;;;5055048;28;20625;-67
2021/03/29 09:43:49;;;;;;;3.90;1.90;;;15.60;99.90;;;;;;5055200;28;21096;-67
2021/03/29 09:46:16;;;;;;;5.40;2.07;;;15.90;99.90;;;;;;5055088;28;20637;-68
2021/03/29 09:48:44;;;;;;;3.50;2.70;;;15.90;99.90;;;;;;5056125;28;20955;-67
2021/03/29 09:51:22;;;;;;;6.03;2.63;;;16.00;99.90;;;;;;5055134;28;21169;-67
2021/03/29 09:53:49;;;;;;;7.20;2.37;;;15.70;99.90;;;;;;5055911;28;20550;-67
2021/03/29 09:56:33;;;;;;;5.77;2.80;;;15.80;99.90;;;;;;5055414;28;20635;-67
2021/03/29 09:58:59;;;;;;;3.30;2.43;;;15.90;99.90;;;;;;5055893;28;21163;-67
2021/03/29 10:01:28;;;;;;;3.40;2.17;;;16.10;99.90;;;;;;5055293;28;20656;-67
2021/03/29 10:04:02;;;;;;;3.90;2.17;;;16.10;99.90;;;;;;5053616;28;20576;-68
2021/03/29 10:06:29;;;;;;;3.47;2.00;;;16.50;99.90;;;;;;5053401;28;20721;-67
2021/03/29 10:09:01;;;;;;;8.00;2.60;;;16.40;99.90;;;;;;5054797;28;20587;-67
2021/03/29 10:11:48;;;;;;;6.57;3.00;;;16.50;99.90;;;;;;5055030;28;20575;-66
2021/03/29 10:14:16;;;;;;;2.20;2.00;;;16.80;99.90;;;;;;5055974;28;20544;-67
2021/03/29 10:16:47;;;;;;;3.63;1.97;;;17.00;99.90;;;;;;5054846;28;20717;-67
2021/03/29 10:19:16;;;;;;;2.37;2.17;;;17.10;99.90;;;;;;5054289;28;20738;-67
2021/03/29 10:22:03;;;;;;;5.67;2.13;;;16.80;99.90;;;;;;5054522;28;20684;-67
2021/03/29 10:25:00;;;;;;;3.53;2.30;;;17.00;99.90;;;;;;5054156;28;20593;-67
2021/03/29 10:27:45;;;;;;;3.87;2.30;;;16.90;99.90;;;;;;5054368;28;21141;-68
2021/03/29 10:30:26;;;;;;;5.30;2.30;;;16.90;99.90;;;;;;5052988;28;20647;-68
2021/03/29 10:32:53;;;;;;;7.70;2.17;;;17.20;99.90;;;;;;5054454;28;20613;-68
2021/03/29 10:35:21;;;;;;;6.17;3.10;;;17.10;99.90;;;;;;5055418;28;21207;-68
2021/03/29 10:37:50;;;;;;;7.07;2.50;;;17.30;99.90;;;;;;5054310;28;20977;-70
2021/03/29 10:40:18;;;;;;;3.37;2.07;;;17.40;99.90;;;;;;5054711;28;20754;-68
2021/03/29 10:42:46;;;;;;;2.40;1.80;;;17.60;99.90;;;;;;5055809;28;20970;-68
2021/03/29 10:45:17;;;;;;;10.93;2.23;;;17.60;99.90;;;;;;5055602;28;20548;-67
2021/03/29 10:47:45;;;;;;;4.10;2.03;;;17.80;99.90;;;;;;5055538;28;20970;-67
2021/03/29 10:50:15;;;;;;;6.50;2.20;;;18.20;99.90;;;;;;5054913;28;20661;-67
2021/03/29 10:52:43;;;;;;;4.77;1.70;;;18.00;99.90;;;;;;5053951;28;20571;-67
2021/03/29 10:55:14;;;;;;;3.10;2.10;;;18.40;99.90;;;;;;5054194;28;20607;-68
2021/03/29 10:57:43;;;;;;;2.43;1.70;;;18.40;99.90;;;;;;5054141;28;20947;-67
2021/03/29 11:00:11;;;;;;;5.17;2.30;;;18.20;99.90;;;;;;5054141;28;20650;-67
2021/03/29 11:02:38;;;;;;;3.57;1.60;;;18.40;99.90;;;;;;5053237;28;20619;-67
2021/03/29 11:05:08;;;;;;;3.73;1.70;;;18.40;99.90;;;;;;5052604;28;20603;-67
2021/03/29 11:07:34;;;;;;;1.90;1.67;;;18.60;99.90;;;;;;5053847;28;20603;-69
2021/03/29 11:10:03;;;;;;;5.97;1.70;;;18.70;99.90;;;;;;5054144;28;20661;-68
2021/03/29 11:12:31;;;;;;;8.63;2.50;;;18.70;99.90;;;;;;5053748;28;21155;-68
2021/03/29 11:14:58;;;;;;;4.77;2.03;;;18.90;99.90;;;;;;5053722;28;20630;-68
2021/03/29 11:17:29;;;;;;;3.90;2.60;;;19.40;99.90;;;;;;5053592;28;20607;-68
2021/03/29 11:19:55;;;;;;;5.30;2.00;;;19.50;99.90;;;;;;5053461;28;20642;-68
2021/03/29 11:22:22;;;;;;;5.53;2.03;;;19.20;99.90;;;;;;5053663;28;20957;-68
2021/03/29 11:24:50;;;;;;;3.50;2.00;;;19.30;99.90;;;;;;5053454;28;20615;-67
2021/03/29 11:27:19;;;;;;;2.17;1.80;;;19.60;99.90;;;;;;5053517;28;20608;-66
2021/03/29 11:29:46;;;;;;;5.10;1.93;;;20.20;99.90;;;;;;5054085;28;20619;-68
2021/03/29 11:32:16;;;;;;;3.00;1.90;;;20.60;99.90;;;;;;5054151;28;20970;-68
2021/03/29 11:34:42;;;;;;;6.13;2.30;;;20.90;99.90;;;;;;5052333;28;20615;-68
2021/03/29 11:37:09;;;;;;;3.73;2.30;;;20.30;99.90;;;;;;5053479;28;20717;-68
2021/03/29 11:39:36;;;;;;;3.60;2.00;;;20.70;99.90;;;;;;5053931;28;20653;-68
2021/03/29 11:42:03;;;;;;;1.67;1.43;;;20.40;99.90;;;;;;5053474;28;20928;-68
2021/03/29 11:44:30;;;;;;;2.03;1.87;;;21.00;99.90;;;;;;5053399;28;20615;-68
2021/03/29 11:46:57;;;;;;;2.30;1.50;;;20.80;99.90;;;;;;5057284;28;20689;-68
2021/03/29 11:49:23;;;;;;;3.40;2.20;;;21.20;99.90;;;;;;5057608;28;20963;-67
2021/03/29 11:51:51;;;;;;;3.97;2.20;;;21.40;99.90;;;;;;5057826;28;20654;-67
2021/03/29 11:54:17;;;;;;;1.93;1.60;;;21.20;99.90;;;;;;5056275;28;20619;-68
2021/03/29 11:56:44;;;;;;;2.60;1.73;;;21.40;99.90;;;;;;5057350;28;21156;-68
2021/03/29 11:59:10;;;;;;;3.77;2.10;;;21.50;99.90;;;;;;5057714;28;20614;-68
2021/03/29 12:04:13;;;;;;;3.60;2.10;;;21.90;99.90;;;;;;5056920;28;20603;-68
2021/03/29 12:06:53;;;;;;;4.03;1.77;;;22.10;99.90;;;;;;5057698;28;21032;-68
2021/03/29 12:14:33;;;;;;;2.90;1.80;;;22.10;99.90;;;;;;5058412;28;20924;-67
2021/03/29 12:17:01;;;;;;;3.33;1.60;;;21.90;99.90;;;;;;5057676;28;20903;-67
2021/03/29 12:19:30;;;;;;;8.40;2.10;;;22.30;99.90;;;;;;5057536;28;20651;-67
2021/03/29 12:22:01;;;;;;;3.03;1.90;;;22.20;99.90;;;;;;5056727;28;20623;-67
2021/03/29 12:24:31;;;;;;;2.90;1.70;;;22.40;99.90;;;;;;5056431;28;20562;-67
2021/03/29 12:27:03;;;;;;;3.83;2.07;;;22.30;99.90;;;;;;5056497;28;20575;-67
2021/03/29 12:29:40;;;;;;;3.57;1.90;;;22.70;99.90;;;;;;5055996;28;20721;-67
2021/03/29 12:32:11;;;;;;;6.40;1.97;;;22.40;99.90;;;;;;5056677;28;20622;-67
2021/03/29 12:35:01;;;;;;;6.73;2.30;;;22.80;99.90;;;;;;5056419;28;20964;-67
2021/03/29 12:37:30;;;;;;;7.03;2.17;;;22.70;99.90;;;;;;5056444;28;20595;-66
2021/03/29 12:40:04;;;;;;;5.00;1.90;;;22.50;99.90;;;;;;5055036;28;20704;-67
2021/03/29 12:42:37;;;;;;;4.07;2.10;;;22.40;99.90;;;;;;5055987;28;20594;-67
2021/03/29 12:45:05;;;;;;;2.77;1.90;;;21.80;99.90;;;;;;5056249;28;20623;-68
2021/03/29 12:47:33;;;;;;;4.40;2.17;;;22.50;99.90;;;;;;5056361;28;20602;-68
2021/03/29 12:50:11;;;;;;;3.53;2.10;;;23.40;99.90;;;;;;5055689;28;20619;-67
2021/03/29 12:52:40;;;;;;;2.60;2.00;;;23.10;99.90;;;;;;5056314;28;20626;-68
2021/03/29 12:55:08;;;;;;;3.20;1.87;;;22.80;99.90;;;;;;5056375;28;20603;-68
2021/03/29 12:57:35;;;;;;;4.03;2.27;;;23.10;99.90;;;;;;5056162;28;20629;-68
2021/03/29 13:00:06;;;;;;;6.40;2.10;;;22.80;99.90;;;;;;5056611;28;20662;-68
2021/03/29 13:02:33;;;;;;;3.27;1.80;;;22.60;99.90;;;;;;5057218;28;20601;-67
2021/03/29 13:05:00;;;;;;;3.40;2.40;;;22.90;99.90;;;;;;5056381;28;20615;-67
2021/03/29 13:07:58;;;;;;;3.77;2.17;;;23.20;99.90;;;;;;5056009;28;20607;-67
2021/03/29 13:12:58;;;;;;;3.23;1.87;;;23.30;99.90;;;;;;5054559;28;21192;-67
2021/03/29 13:15:24;;;;;;;2.43;2.23;;;23.90;99.90;;;;;;5055739;28;20686;-68
2021/03/29 13:17:50;;;;;;;4.87;2.20;;;24.60;99.90;;;;;;5055733;28;20682;-67
2021/03/29 13:20:20;;;;;;;3.30;2.37;;;24.40;99.90;;;;;;5055817;28;20650;-68
2021/03/29 13:22:50;;;;;;;4.37;2.63;;;23.50;99.90;;;;;;5054509;28;20698;-68